sensor_id;sensor_type;location;lat;lon;timestamp;pressure;altitude;pressure_sealevel;temperature;humidity
10732;BME280;5417;42.686;23.244;2022-10-17T00:00:39;95567.72;;;10.58;66.28
10732;BME280;5417;42.686;23.244;2022-10-17T00:03:05;95564.38;;;10.56;66.07
10732;BME280;5417;42.686;23.244;2022-10-17T00:05:32;95564.56;;;10.53;66.09
10732;BME280;5417;42.686;23.244;2022-10-17T00:08:01;95569.88;;;10.52;66.19
10732;BME280;5417;42.686;23.244;2022-10-17T00:10:28;95564.75;;;10.50;66.22
10732;BME280;5417;42.686;23.244;2022-10-17T00:12:54;95565.13;;;10.44;66.17
10732;BME280;5417;42.686;23.244;2022-10-17T00:15:22;95567.66;;;10.46;66.06
10732;BME280;5417;42.686;23.244;2022-10-17T00:17:49;95571.19;;;10.45;66.55
10732;BME280;5417;42.686;23.244;2022-10-17T00:20:15;95569.50;;;10.43;66.33
10732;BME280;5417;42.686;23.244;2022-10-17T00:22:42;95573.03;;;10.42;66.31
10732;BME280;5417;42.686;23.244;2022-10-17T00:25:11;95580.94;;;10.41;66.55
10732;BME280;5417;42.686;23.244;2022-10-17T00:27:39;95580.16;;;10.39;66.57
10732;BME280;5417;42.686;23.244;2022-10-17T00:30:11;95578.50;;;10.38;66.67
10732;BME280;5417;42.686;23.244;2022-10-17T00:32:38;95570.88;;;10.35;66.46
10732;BME280;5417;42.686;23.244;2022-10-17T00:35:06;95575.25;;;10.34;66.84
10732;BME280;5417;42.686;23.244;2022-10-17T00:37:33;95575.25;;;10.34;66.57
10732;BME280;5417;42.686;23.244;2022-10-17T00:40:00;95578.03;;;10.31;66.76
10732;BME280;5417;42.686;23.244;2022-10-17T00:42:28;95587.63;;;10.31;66.48
10732;BME280;5417;42.686;23.244;2022-10-17T00:45:17;95584.28;;;10.29;66.74
10732;BME280;5417;42.686;23.244;2022-10-17T00:47:47;95580.00;;;10.28;66.72
10732;BME280;5417;42.686;23.244;2022-10-17T00:50:17;95580.94;;;10.27;66.78
10732;BME280;5417;42.686;23.244;2022-10-17T00:52:46;95583.53;;;10.27;66.91
10732;BME280;5417;42.686;23.244;2022-10-17T00:55:16;95579.34;;;10.24;66.91
10732;BME280;5417;42.686;23.244;2022-10-17T00:57:45;95593.38;;;10.22;66.41
10732;BME280;5417;42.686;23.244;2022-10-17T01:00:14;95584.81;;;10.20;67.20
10732;BME280;5417;42.686;23.244;2022-10-17T01:02:41;95591.88;;;10.18;67.06
10732;BME280;5417;42.686;23.244;2022-10-17T01:05:10;95591.97;;;10.16;67.12
10732;BME280;5417;42.686;23.244;2022-10-17T01:07:38;95591.03;;;10.17;66.92
10732;BME280;5417;42.686;23.244;2022-10-17T01:10:07;95582.59;;;10.13;66.99
10732;BME280;5417;42.686;23.244;2022-10-17T01:12:43;95588.53;;;10.16;67.02
10732;BME280;5417;42.686;23.244;2022-10-17T01:15:21;95586.94;;;10.13;66.98
10732;BME280;5417;42.686;23.244;2022-10-17T01:18:03;95587.03;;;10.11;67.20
10732;BME280;5417;42.686;23.244;2022-10-17T01:21:04;95587.03;;;10.11;68.14
10732;BME280;5417;42.686;23.244;2022-10-17T01:23:47;95579.59;;;10.05;68.24
10732;BME280;5417;42.686;23.244;2022-10-17T01:26:26;95585.75;;;10.04;67.50
10732;BME280;5417;42.686;23.244;2022-10-17T01:32:14;95587.78;;;9.99;68.56
10732;BME280;5417;42.686;23.244;2022-10-17T01:34:47;95579.34;;;9.96;68.34
10732;BME280;5417;42.686;23.244;2022-10-17T01:37:26;95584.63;;;9.94;68.06
10732;BME280;5417;42.686;23.244;2022-10-17T01:39:59;95582.88;;;9.95;69.27
10732;BME280;5417;42.686;23.244;2022-10-17T01:42:34;95591.69;;;9.92;68.82
10732;BME280;5417;42.686;23.244;2022-10-17T01:45:08;95586.81;;;9.86;68.30
10732;BME280;5417;42.686;23.244;2022-10-17T01:47:39;95594.16;;;9.79;68.17
10732;BME280;5417;42.686;23.244;2022-10-17T01:50:11;95595.16;;;9.77;68.00
10732;BME280;5417;42.686;23.244;2022-10-17T01:52:45;95601.38;;;9.74;68.08
10732;BME280;5417;42.686;23.244;2022-10-17T01:55:17;95607.69;;;9.70;67.08
10732;BME280;5417;42.686;23.244;2022-10-17T01:57:48;95594.97;;;9.66;67.52
10732;BME280;5417;42.686;23.244;2022-10-17T02:00:20;95604.72;;;9.62;67.78
10732;BME280;5417;42.686;23.244;2022-10-17T02:02:51;95604.88;;;9.59;67.36
10732;BME280;5417;42.686;23.244;2022-10-17T02:05:23;95603.31;;;9.57;67.89
10732;BME280;5417;42.686;23.244;2022-10-17T02:07:51;95602.56;;;9.55;67.65
10732;BME280;5417;42.686;23.244;2022-10-17T02:10:24;95602.66;;;9.53;68.42
10732;BME280;5417;42.686;23.244;2022-10-17T02:12:54;95602.91;;;9.48;68.16
10732;BME280;5417;42.686;23.244;2022-10-17T02:15:38;95609.03;;;9.47;68.38
10732;BME280;5417;42.686;23.244;2022-10-17T02:18:16;95604.03;;;9.44;67.89
10732;BME280;5417;42.686;23.244;2022-10-17T02:20:48;95614.50;;;9.43;68.36
10732;BME280;5417;42.686;23.244;2022-10-17T02:23:22;95605.97;;;9.41;68.22
10732;BME280;5417;42.686;23.244;2022-10-17T02:25:56;95599.94;;;9.40;69.30
10732;BME280;5417;42.686;23.244;2022-10-17T02:28:31;95612.00;;;9.41;69.20
10732;BME280;5417;42.686;23.244;2022-10-17T02:31:07;95615.59;;;9.39;69.49
10732;BME280;5417;42.686;23.244;2022-10-17T02:33:41;95614.78;;;9.38;69.81
10732;BME280;5417;42.686;23.244;2022-10-17T02:36:14;95624.31;;;9.38;69.56
10732;BME280;5417;42.686;23.244;2022-10-17T02:38:44;95619.53;;;9.30;69.52
10732;BME280;5417;42.686;23.244;2022-10-17T02:41:15;95626.22;;;9.34;69.19
10732;BME280;5417;42.686;23.244;2022-10-17T02:43:44;95631.50;;;9.33;69.53
10732;BME280;5417;42.686;23.244;2022-10-17T02:46:14;95627.16;;;9.33;69.01
10732;BME280;5417;42.686;23.244;2022-10-17T02:48:49;95634.88;;;9.35;68.88
10732;BME280;5417;42.686;23.244;2022-10-17T02:51:21;95634.03;;;9.34;68.49
10732;BME280;5417;42.686;23.244;2022-10-17T02:53:56;95632.34;;;9.33;68.23
10732;BME280;5417;42.686;23.244;2022-10-17T02:56:28;95631.69;;;9.30;68.32
10732;BME280;5417;42.686;23.244;2022-10-17T02:58:57;95640.50;;;9.27;68.96
10732;BME280;5417;42.686;23.244;2022-10-17T03:01:25;95640.66;;;9.24;68.91
10732;BME280;5417;42.686;23.244;2022-10-17T03:04:05;95638.16;;;9.23;68.39
10732;BME280;5417;42.686;23.244;2022-10-17T03:06:32;95643.44;;;9.21;68.82
10732;BME280;5417;42.686;23.244;2022-10-17T03:08:59;95640.09;;;9.19;68.83
10732;BME280;5417;42.686;23.244;2022-10-17T03:11:26;95643.78;;;9.15;69.02
10732;BME280;5417;42.686;23.244;2022-10-17T03:13:53;95648.06;;;9.16;69.06
10732;BME280;5417;42.686;23.244;2022-10-17T03:16:20;95646.47;;;9.13;68.81
10732;BME280;5417;42.686;23.244;2022-10-17T03:18:47;95650.00;;;9.12;69.46
10732;BME280;5417;42.686;23.244;2022-10-17T03:21:16;95651.09;;;9.08;68.72
10732;BME280;5417;42.686;23.244;2022-10-17T03:23:43;95651.16;;;9.07;69.09
10732;BME280;5417;42.686;23.244;2022-10-17T03:26:10;95656.38;;;9.07;68.82
10732;BME280;5417;42.686;23.244;2022-10-17T03:28:37;95657.28;;;9.06;68.98
10732;BME280;5417;42.686;23.244;2022-10-17T03:31:07;95653.09;;;9.03;68.78
10732;BME280;5417;42.686;23.244;2022-10-17T03:33:35;95649.66;;;9.03;69.34
10732;BME280;5417;42.686;23.244;2022-10-17T03:36:06;95656.72;;;9.01;68.85
10732;BME280;5417;42.686;23.244;2022-10-17T03:38:35;95655.13;;;8.98;68.71
10732;BME280;5417;42.686;23.244;2022-10-17T03:41:02;95655.19;;;8.97;68.96
10732;BME280;5417;42.686;23.244;2022-10-17T03:43:29;95651.94;;;8.93;69.23
10732;BME280;5417;42.686;23.244;2022-10-17T03:45:56;95659.81;;;8.92;68.59
10732;BME280;5417;42.686;23.244;2022-10-17T03:48:23;95658.13;;;8.91;68.95
10732;BME280;5417;42.686;23.244;2022-10-17T03:50:50;95664.16;;;8.91;69.38
10732;BME280;5417;42.686;23.244;2022-10-17T03:53:17;95659.22;;;8.87;68.88
10732;BME280;5417;42.686;23.244;2022-10-17T03:55:45;95669.59;;;8.87;69.38
10732;BME280;5417;42.686;23.244;2022-10-17T03:58:12;95660.97;;;8.86;69.11
10732;BME280;5417;42.686;23.244;2022-10-17T04:00:39;95656.72;;;8.85;69.32
10732;BME280;5417;42.686;23.244;2022-10-17T04:03:06;95665.41;;;8.84;69.65
10732;BME280;5417;42.686;23.244;2022-10-17T04:05:33;95665.34;;;8.85;70.03
10732;BME280;5417;42.686;23.244;2022-10-17T04:08:00;95672.22;;;8.87;69.92
10732;BME280;5417;42.686;23.244;2022-10-17T04:10:26;95678.31;;;8.85;69.79
10732;BME280;5417;42.686;23.244;2022-10-17T04:12:55;95674.94;;;8.83;70.00
10732;BME280;5417;42.686;23.244;2022-10-17T04:15:32;95677.53;;;8.83;69.63
10732;BME280;5417;42.686;23.244;2022-10-17T04:17:59;95676.94;;;8.78;68.99
10732;BME280;5417;42.686;23.244;2022-10-17T04:20:26;95677.13;;;8.75;69.20
10732;BME280;5417;42.686;23.244;2022-10-17T04:23:10;95677.19;;;8.74;69.96
10732;BME280;5417;42.686;23.244;2022-10-17T04:25:57;95676.53;;;8.70;69.98
10732;BME280;5417;42.686;23.244;2022-10-17T04:28:39;95677.59;;;8.66;69.71
10732;BME280;5417;42.686;23.244;2022-10-17T04:31:09;95685.31;;;8.68;69.93
10732;BME280;5417;42.686;23.244;2022-10-17T04:33:37;95686.00;;;8.71;70.85
10732;BME280;5417;42.686;23.244;2022-10-17T04:36:07;95675.44;;;8.74;71.23
10732;BME280;5417;42.686;23.244;2022-10-17T04:38:38;95678.13;;;8.73;70.44
10732;BME280;5417;42.686;23.244;2022-10-17T04:41:11;95686.75;;;8.73;70.40
10732;BME280;5417;42.686;23.244;2022-10-17T04:43:40;95686.91;;;8.70;69.72
10732;BME280;5417;42.686;23.244;2022-10-17T04:46:08;95695.53;;;8.71;69.51
10732;BME280;5417;42.686;23.244;2022-10-17T04:48:36;95687.06;;;8.67;69.76
10732;BME280;5417;42.686;23.244;2022-10-17T04:51:06;95690.34;;;8.71;69.79
10732;BME280;5417;42.686;23.244;2022-10-17T04:53:37;95688.59;;;8.71;69.21
10732;BME280;5417;42.686;23.244;2022-10-17T04:56:08;95687.75;;;8.71;69.49
10732;BME280;5417;42.686;23.244;2022-10-17T04:58:35;95685.91;;;8.73;69.63
10732;BME280;5417;42.686;23.244;2022-10-17T05:01:08;95689.53;;;8.86;70.38
10732;BME280;5417;42.686;23.244;2022-10-17T05:03:37;95695.72;;;9.46;71.31
10732;BME280;5417;42.686;23.244;2022-10-17T05:06:05;95699.47;;;10.47;69.72
10732;BME280;5417;42.686;23.244;2022-10-17T05:08:33;95694.13;;;11.46;67.79
10732;BME280;5417;42.686;23.244;2022-10-17T05:11:00;95687.66;;;12.44;63.14
10732;BME280;5417;42.686;23.244;2022-10-17T05:13:39;95680.91;;;13.52;59.91
10732;BME280;5417;42.686;23.244;2022-10-17T05:16:07;95690.81;;;14.54;55.30
10732;BME280;5417;42.686;23.244;2022-10-17T05:18:35;95680.28;;;15.55;51.10
10732;BME280;5417;42.686;23.244;2022-10-17T05:21:02;95681.16;;;16.40;47.23
10732;BME280;5417;42.686;23.244;2022-10-17T05:23:29;95691.66;;;17.12;47.16
10732;BME280;5417;42.686;23.244;2022-10-17T05:25:57;95691.72;;;17.91;45.84
10732;BME280;5417;42.686;23.244;2022-10-17T05:28:24;95687.13;;;18.51;42.88
10732;BME280;5417;42.686;23.244;2022-10-17T05:30:51;95693.78;;;18.74;39.86
10732;BME280;5417;42.686;23.244;2022-10-17T05:33:19;95695.97;;;18.88;40.12
10732;BME280;5417;42.686;23.244;2022-10-17T05:35:46;95705.16;;;18.65;39.19
10732;BME280;5417;42.686;23.244;2022-10-17T05:38:12;95700.28;;;18.70;39.89
10732;BME280;5417;42.686;23.244;2022-10-17T05:40:39;95699.22;;;19.10;39.34
10732;BME280;5417;42.686;23.244;2022-10-17T05:43:06;95706.03;;;19.40;38.83
10732;BME280;5417;42.686;23.244;2022-10-17T05:45:34;95707.72;;;19.68;37.93
10732;BME280;5417;42.686;23.244;2022-10-17T05:48:01;95705.66;;;20.07;37.73
10732;BME280;5417;42.686;23.244;2022-10-17T05:50:30;95707.19;;;20.45;36.90
10732;BME280;5417;42.686;23.244;2022-10-17T05:52:56;95708.25;;;20.78;36.91
10732;BME280;5417;42.686;23.244;2022-10-17T05:55:23;95709.44;;;21.10;35.90
10732;BME280;5417;42.686;23.244;2022-10-17T05:57:50;95710.56;;;20.99;36.00
10732;BME280;5417;42.686;23.244;2022-10-17T06:00:18;95719.19;;;20.58;36.56
10732;BME280;5417;42.686;23.244;2022-10-17T06:02:46;95723.03;;;20.28;37.01
10732;BME280;5417;42.686;23.244;2022-10-17T06:05:14;95716.47;;;20.32;37.72
10732;BME280;5417;42.686;23.244;2022-10-17T06:07:42;95720.63;;;20.34;37.46
10732;BME280;5417;42.686;23.244;2022-10-17T06:10:10;95727.00;;;20.41;37.56
10732;BME280;5417;42.686;23.244;2022-10-17T06:12:39;95723.56;;;20.31;37.34
10732;BME280;5417;42.686;23.244;2022-10-17T06:15:07;95731.78;;;20.28;37.90
10732;BME280;5417;42.686;23.244;2022-10-17T06:17:34;95733.16;;;20.32;37.30
10732;BME280;5417;42.686;23.244;2022-10-17T06:20:02;95724.69;;;20.11;37.60
10732;BME280;5417;42.686;23.244;2022-10-17T06:22:29;95742.16;;;19.76;38.43
10732;BME280;5417;42.686;23.244;2022-10-17T06:24:57;95748.03;;;19.33;39.01
10732;BME280;5417;42.686;23.244;2022-10-17T06:27:24;95750.47;;;19.07;39.89
10732;BME280;5417;42.686;23.244;2022-10-17T06:29:50;95756.13;;;18.75;40.71
10732;BME280;5417;42.686;23.244;2022-10-17T06:32:17;95761.66;;;18.53;40.93
10732;BME280;5417;42.686;23.244;2022-10-17T06:34:44;95761.38;;;18.27;41.13
10732;BME280;5417;42.686;23.244;2022-10-17T06:37:11;95755.81;;;18.20;42.09
10732;BME280;5417;42.686;23.244;2022-10-17T06:39:38;95755.38;;;17.96;42.95
10732;BME280;5417;42.686;23.244;2022-10-17T06:42:06;95761.41;;;17.67;43.80
10732;BME280;5417;42.686;23.244;2022-10-17T06:44:33;95762.88;;;17.60;43.56
10732;BME280;5417;42.686;23.244;2022-10-17T06:47:00;95769.22;;;17.48;44.10
10732;BME280;5417;42.686;23.244;2022-10-17T06:49:27;95766.69;;;17.37;44.23
10732;BME280;5417;42.686;23.244;2022-10-17T06:51:54;95776.91;;;17.30;44.23
10732;BME280;5417;42.686;23.244;2022-10-17T06:54:21;95774.81;;;17.24;44.02
10732;BME280;5417;42.686;23.244;2022-10-17T06:56:48;95766.44;;;17.50;43.81
10732;BME280;5417;42.686;23.244;2022-10-17T06:59:16;95769.75;;;17.73;42.75
10732;BME280;5417;42.686;23.244;2022-10-17T07:01:43;95771.47;;;18.03;42.70
10732;BME280;5417;42.686;23.244;2022-10-17T07:04:10;95768.97;;;18.20;42.42
10732;BME280;5417;42.686;23.244;2022-10-17T07:06:37;95769.44;;;18.45;42.20
10732;BME280;5417;42.686;23.244;2022-10-17T07:09:04;95770.81;;;18.49;41.21
10732;BME280;5417;42.686;23.244;2022-10-17T07:11:32;95767.75;;;18.44;41.04
10732;BME280;5417;42.686;23.244;2022-10-17T07:14:00;95770.81;;;18.68;41.17
10732;BME280;5417;42.686;23.244;2022-10-17T07:16:28;95764.16;;;18.54;40.97
10732;BME280;5417;42.686;23.244;2022-10-17T07:18:55;95774.00;;;18.43;40.79
10732;BME280;5417;42.686;23.244;2022-10-17T07:21:22;95772.31;;;18.13;41.32
10732;BME280;5417;42.686;23.244;2022-10-17T07:23:49;95765.00;;;18.26;41.24
10732;BME280;5417;42.686;23.244;2022-10-17T07:26:17;95768.16;;;18.10;41.09
10732;BME280;5417;42.686;23.244;2022-10-17T07:28:45;95768.53;;;17.96;41.68
10732;BME280;5417;42.686;23.244;2022-10-17T07:31:15;95771.94;;;17.67;42.43
10732;BME280;5417;42.686;23.244;2022-10-17T07:33:44;95774.31;;;17.71;43.06
10732;BME280;5417;42.686;23.244;2022-10-17T07:36:12;95776.28;;;17.78;43.88
10732;BME280;5417;42.686;23.244;2022-10-17T07:38:39;95778.81;;;17.99;43.39
10732;BME280;5417;42.686;23.244;2022-10-17T07:41:08;95783.66;;;18.04;42.46
10732;BME280;5417;42.686;23.244;2022-10-17T07:43:35;95775.75;;;17.84;42.97
10732;BME280;5417;42.686;23.244;2022-10-17T07:46:03;95782.78;;;17.74;42.32
10732;BME280;5417;42.686;23.244;2022-10-17T07:48:31;95785.03;;;17.88;42.15
10732;BME280;5417;42.686;23.244;2022-10-17T07:51:03;95794.44;;;17.72;42.32
10732;BME280;5417;42.686;23.244;2022-10-17T07:53:30;95788.81;;;17.65;43.45
10732;BME280;5417;42.686;23.244;2022-10-17T07:55:57;95788.47;;;17.79;43.05
10732;BME280;5417;42.686;23.244;2022-10-17T07:58:23;95789.63;;;17.65;42.10
10732;BME280;5417;42.686;23.244;2022-10-17T08:00:50;95782.69;;;17.64;42.99
10732;BME280;5417;42.686;23.244;2022-10-17T08:03:17;95780.84;;;17.76;43.87
10732;BME280;5417;42.686;23.244;2022-10-17T08:05:44;95776.72;;;17.93;43.19
10732;BME280;5417;42.686;23.244;2022-10-17T08:08:12;95782.41;;;17.98;42.58
10732;BME280;5417;42.686;23.244;2022-10-17T08:10:39;95778.69;;;18.10;42.60
10732;BME280;5417;42.686;23.244;2022-10-17T08:13:06;95773.97;;;18.04;43.79
10732;BME280;5417;42.686;23.244;2022-10-17T08:15:36;95772.59;;;18.10;43.31
10732;BME280;5417;42.686;23.244;2022-10-17T08:18:03;95772.88;;;18.16;41.90
10732;BME280;5417;42.686;23.244;2022-10-17T08:20:30;95769.53;;;18.14;42.04
10732;BME280;5417;42.686;23.244;2022-10-17T08:22:57;95769.94;;;18.19;42.39
10732;BME280;5417;42.686;23.244;2022-10-17T08:25:25;95769.00;;;18.30;42.13
10732;BME280;5417;42.686;23.244;2022-10-17T08:27:52;95759.31;;;18.31;42.67
10732;BME280;5417;42.686;23.244;2022-10-17T08:30:19;95765.53;;;18.29;42.40
10732;BME280;5417;42.686;23.244;2022-10-17T08:32:46;95763.31;;;18.25;42.10
10732;BME280;5417;42.686;23.244;2022-10-17T08:35:13;95758.31;;;18.12;41.55
10732;BME280;5417;42.686;23.244;2022-10-17T08:37:40;95760.94;;;18.12;41.29
10732;BME280;5417;42.686;23.244;2022-10-17T08:40:14;95764.69;;;18.10;41.23
10732;BME280;5417;42.686;23.244;2022-10-17T08:43:13;95767.03;;;18.13;40.76
10732;BME280;5417;42.686;23.244;2022-10-17T08:45:49;95768.84;;;18.12;40.70
10732;BME280;5417;42.686;23.244;2022-10-17T08:48:19;95766.75;;;17.96;43.83
10732;BME280;5417;42.686;23.244;2022-10-17T08:50:50;95768.84;;;18.12;43.06
10732;BME280;5417;42.686;23.244;2022-10-17T08:53:21;95766.22;;;18.12;41.45
10732;BME280;5417;42.686;23.244;2022-10-17T08:55:51;95766.53;;;18.28;41.17
10732;BME280;5417;42.686;23.244;2022-10-17T08:58:22;95770.25;;;18.36;42.47
10732;BME280;5417;42.686;23.244;2022-10-17T09:00:55;95772.44;;;18.11;42.53
10732;BME280;5417;42.686;23.244;2022-10-17T09:03:38;95764.38;;;17.84;42.92
10732;BME280;5417;42.686;23.244;2022-10-17T09:06:18;95765.84;;;17.67;42.37
10732;BME280;5417;42.686;23.244;2022-10-17T09:08:59;95775.53;;;17.66;42.37
10732;BME280;5417;42.686;23.244;2022-10-17T09:11:39;95774.66;;;17.66;42.58
10732;BME280;5417;42.686;23.244;2022-10-17T09:14:21;95768.69;;;17.64;42.38
10732;BME280;5417;42.686;23.244;2022-10-17T09:17:09;95768.56;;;17.65;42.50
10732;BME280;5417;42.686;23.244;2022-10-17T09:19:39;95761.16;;;17.71;39.05
10732;BME280;5417;42.686;23.244;2022-10-17T09:22:10;95763.69;;;17.91;38.42
10732;BME280;5417;42.686;23.244;2022-10-17T09:24:42;95768.41;;;17.97;37.82
10732;BME280;5417;42.686;23.244;2022-10-17T09:27:19;95758.56;;;18.09;37.41
10732;BME280;5417;42.686;23.244;2022-10-17T09:29:51;95760.41;;;18.28;37.27
10732;BME280;5417;42.686;23.244;2022-10-17T09:32:23;95761.81;;;18.32;35.54
10732;BME280;5417;42.686;23.244;2022-10-17T09:34:50;95762.91;;;18.39;35.67
10732;BME280;5417;42.686;23.244;2022-10-17T09:37:22;95767.34;;;18.39;35.49
10732;BME280;5417;42.686;23.244;2022-10-17T09:39:50;95757.09;;;18.36;35.10
10732;BME280;5417;42.686;23.244;2022-10-17T09:42:19;95762.75;;;18.50;35.07
10732;BME280;5417;42.686;23.244;2022-10-17T09:44:54;95761.66;;;18.53;35.25
10732;BME280;5417;42.686;23.244;2022-10-17T09:47:27;95761.81;;;18.32;34.24
10732;BME280;5417;42.686;23.244;2022-10-17T09:49:55;95751.81;;;18.36;34.96
10732;BME280;5417;42.686;23.244;2022-10-17T09:52:27;95762.91;;;18.39;34.40
10732;BME280;5417;42.686;23.244;2022-10-17T09:55:00;95753.06;;;18.32;34.56
10732;BME280;5417;42.686;23.244;2022-10-17T09:57:52;95768.72;;;18.43;34.05
10732;BME280;5417;42.686;23.244;2022-10-17T10:00:23;95753.34;;;18.28;34.08
10732;BME280;5417;42.686;23.244;2022-10-17T10:02:50;95750.56;;;18.30;33.87
10732;BME280;5417;42.686;23.244;2022-10-17T10:05:33;95741.53;;;18.52;33.98
10732;BME280;5417;42.686;23.244;2022-10-17T10:08:02;95750.97;;;18.54;33.49
10732;BME280;5417;42.686;23.244;2022-10-17T10:10:31;95747.78;;;18.41;32.22
10732;BME280;5417;42.686;23.244;2022-10-17T10:13:05;95750.44;;;18.32;32.14
10732;BME280;5417;42.686;23.244;2022-10-17T10:15:36;95736.81;;;18.17;32.44
10732;BME280;5417;42.686;23.244;2022-10-17T10:18:27;95741.53;;;18.42;32.63
10732;BME280;5417;42.686;23.244;2022-10-17T10:21:04;95737.63;;;18.56;32.00
10732;BME280;5417;42.686;23.244;2022-10-17T10:23:32;95730.41;;;18.58;30.56
10732;BME280;5417;42.686;23.244;2022-10-17T10:26:02;95727.66;;;18.50;29.05
10732;BME280;5417;42.686;23.244;2022-10-17T10:28:31;95726.13;;;18.67;30.24
10732;BME280;5417;42.686;23.244;2022-10-17T10:31:05;95713.78;;;18.67;29.32
10732;BME280;5417;42.686;23.244;2022-10-17T10:33:36;95716.38;;;18.86;28.94
10732;BME280;5417;42.686;23.244;2022-10-17T10:36:06;95716.06;;;18.99;29.11
10732;BME280;5417;42.686;23.244;2022-10-17T10:38:34;95718.56;;;19.01;28.67
10732;BME280;5417;42.686;23.244;2022-10-17T10:41:06;95717.47;;;18.94;28.92
10732;BME280;5417;42.686;23.244;2022-10-17T10:43:35;95718.44;;;18.92;30.16
10732;BME280;5417;42.686;23.244;2022-10-17T10:46:14;95705.16;;;18.84;29.90
10732;BME280;5417;42.686;23.244;2022-10-17T10:48:49;95707.09;;;18.82;30.02
10732;BME280;5417;42.686;23.244;2022-10-17T10:51:20;95700.91;;;19.01;30.31
10732;BME280;5417;42.686;23.244;2022-10-17T10:53:52;95697.66;;;19.17;29.34
10732;BME280;5417;42.686;23.244;2022-10-17T10:56:25;95699.75;;;19.13;29.41
10732;BME280;5417;42.686;23.244;2022-10-17T10:58:57;95710.22;;;19.05;30.17
10732;BME280;5417;42.686;23.244;2022-10-17T11:01:31;95704.69;;;18.99;30.13
10732;BME280;5417;42.686;23.244;2022-10-17T11:04:10;95694.44;;;18.86;30.71
10732;BME280;5417;42.686;23.244;2022-10-17T11:06:42;95679.75;;;18.83;30.71
10732;BME280;5417;42.686;23.244;2022-10-17T11:09:16;95689.47;;;18.83;31.08
10732;BME280;5417;42.686;23.244;2022-10-17T11:11:48;95686.13;;;18.81;31.42
10732;BME280;5417;42.686;23.244;2022-10-17T11:14:26;95672.88;;;19.00;31.90
10732;BME280;5417;42.686;23.244;2022-10-17T11:17:04;95676.69;;;19.15;31.17
10732;BME280;5417;42.686;23.244;2022-10-17T11:19:36;95676.66;;;19.25;31.28
10732;BME280;5417;42.686;23.244;2022-10-17T11:22:10;95671.44;;;19.43;31.56
10732;BME280;5417;42.686;23.244;2022-10-17T11:24:42;95679.41;;;19.33;29.73
10732;BME280;5417;42.686;23.244;2022-10-17T11:27:12;95670.13;;;19.29;29.28
10732;BME280;5417;42.686;23.244;2022-10-17T11:29:40;95664.72;;;19.21;29.57
10732;BME280;5417;42.686;23.244;2022-10-17T11:32:13;95654.44;;;19.18;28.85
10732;BME280;5417;42.686;23.244;2022-10-17T11:34:44;95663.31;;;19.27;28.93
10732;BME280;5417;42.686;23.244;2022-10-17T11:37:15;95669.44;;;19.27;28.63
10732;BME280;5417;42.686;23.244;2022-10-17T11:39:46;95662.72;;;19.33;29.54
10732;BME280;5417;42.686;23.244;2022-10-17T11:42:17;95656.19;;;19.37;29.11
10732;BME280;5417;42.686;23.244;2022-10-17T11:44:48;95667.13;;;19.42;28.85
10732;BME280;5417;42.686;23.244;2022-10-17T11:47:29;95658.00;;;19.36;28.61
10732;BME280;5417;42.686;23.244;2022-10-17T11:50:03;95656.47;;;19.34;29.43
10732;BME280;5417;42.686;23.244;2022-10-17T11:52:36;95655.31;;;19.09;29.15
10732;BME280;5417;42.686;23.244;2022-10-17T11:55:09;95665.19;;;19.07;29.31
10732;BME280;5417;42.686;23.244;2022-10-17T11:57:55;95657.38;;;19.15;30.23
10732;BME280;5417;42.686;23.244;2022-10-17T12:00:33;95645.69;;;19.17;30.43
10732;BME280;5417;42.686;23.244;2022-10-17T12:03:14;95647.91;;;19.22;29.73
10732;BME280;5417;42.686;23.244;2022-10-17T12:05:48;95650.38;;;19.23;29.34
10732;BME280;5417;42.686;23.244;2022-10-17T12:08:22;95651.28;;;19.14;29.56
10732;BME280;5417;42.686;23.244;2022-10-17T12:10:54;95643.34;;;19.14;29.45
10732;BME280;5417;42.686;23.244;2022-10-17T12:13:52;95641.41;;;19.16;29.49
10732;BME280;5417;42.686;23.244;2022-10-17T12:16:43;95650.44;;;19.14;30.34
10732;BME280;5417;42.686;23.244;2022-10-17T12:19:32;95650.00;;;18.91;30.45
10732;BME280;5417;42.686;23.244;2022-10-17T12:22:15;95641.53;;;18.87;30.03
10732;BME280;5417;42.686;23.244;2022-10-17T12:24:44;95643.19;;;18.88;30.14
10732;BME280;5417;42.686;23.244;2022-10-17T12:27:37;95634.69;;;18.95;30.11
10732;BME280;5417;42.686;23.244;2022-10-17T12:30:18;95637.63;;;18.91;30.54
10732;BME280;5417;42.686;23.244;2022-10-17T12:32:55;95637.47;;;18.93;30.55
10732;BME280;5417;42.686;23.244;2022-10-17T12:35:25;95639.44;;;18.91;30.69
10732;BME280;5417;42.686;23.244;2022-10-17T12:40:58;95627.19;;;19.00;30.23
10732;BME280;5417;42.686;23.244;2022-10-17T12:43:55;95636.03;;;19.08;30.60
10732;BME280;5417;42.686;23.244;2022-10-17T12:46:44;95629.97;;;18.98;30.31
10732;BME280;5417;42.686;23.244;2022-10-17T12:49:40;95629.38;;;19.04;29.69
10732;BME280;5417;42.686;23.244;2022-10-17T12:52:28;95644.56;;;19.20;30.15
10732;BME280;5417;42.686;23.244;2022-10-17T12:55:16;95627.91;;;18.92;30.04
10732;BME280;5417;42.686;23.244;2022-10-17T12:57:49;95627.91;;;18.92;30.39
10732;BME280;5417;42.686;23.244;2022-10-17T13:00:23;95631.97;;;18.86;30.84
10732;BME280;5417;42.686;23.244;2022-10-17T13:02:54;95625.72;;;18.87;30.42
10732;BME280;5417;42.686;23.244;2022-10-17T13:05:26;95624.78;;;18.79;30.74
10732;BME280;5417;42.686;23.244;2022-10-17T13:07:56;95625.75;;;18.78;31.10
10732;BME280;5417;42.686;23.244;2022-10-17T13:10:27;95620.19;;;18.71;31.21
10732;BME280;5417;42.686;23.244;2022-10-17T13:13:03;95622.97;;;18.79;31.18
10732;BME280;5417;42.686;23.244;2022-10-17T13:15:32;95631.56;;;18.72;31.15
10732;BME280;5417;42.686;23.244;2022-10-17T13:18:00;95626.06;;;18.65;31.57
10732;BME280;5417;42.686;23.244;2022-10-17T13:20:29;95619.38;;;18.61;31.03
10732;BME280;5417;42.686;23.244;2022-10-17T13:22:58;95618.69;;;18.59;31.18
10732;BME280;5417;42.686;23.244;2022-10-17T13:25:26;95623.28;;;18.67;31.05
10732;BME280;5417;42.686;23.244;2022-10-17T13:28:05;95627.13;;;18.72;31.07
10732;BME280;5417;42.686;23.244;2022-10-17T13:30:34;95624.94;;;18.58;30.81